createdAt,value
2023-05-23T00:01:21.361Z,100799.56
2023-05-23T00:03:49.287Z,100807.50
2023-05-23T00:06:21.188Z,100817.47
2023-05-23T00:08:48.021Z,100818.28
2023-05-23T00:11:14.500Z,100792.69
2023-05-23T00:13:41.696Z,100814.47
2023-05-23T00:16:09.734Z,100811.06
2023-05-23T00:18:43.197Z,100789.97
2023-05-23T00:21:10.097Z,100789.03
2023-05-23T00:23:42.379Z,100803.78
2023-05-23T00:26:09.940Z,100827.66
2023-05-23T00:28:39.327Z,100791.13
2023-05-23T00:31:06.001Z,100815.28
2023-05-23T00:33:34.315Z,100791.84
2023-05-23T00:36:00.828Z,100830.06
2023-05-23T00:38:28.441Z,100829.88
2023-05-23T00:40:55.045Z,100830.38
2023-05-23T00:43:22.764Z,100826.31
2023-05-23T00:45:49.580Z,100829.00
2023-05-23T00:48:19.140Z,100787.59
2023-05-23T00:50:45.939Z,100836.91
2023-05-23T00:53:12.591Z,100839.56
2023-05-23T00:55:39.653Z,100825.25
2023-05-23T00:58:06.621Z,100820.91
2023-05-23T01:00:34.157Z,100796.31
2023-05-23T01:03:01.332Z,100823.41
2023-05-23T01:05:27.936Z,100865.78
2023-05-23T01:07:54.605Z,100834.22
2023-05-23T01:10:23.984Z,100859.88
2023-05-23T01:13:32.758Z,100866.75
2023-05-23T01:16:43.742Z,100854.38
2023-05-23T01:19:40.772Z,100867.53
2023-05-23T01:22:14.415Z,100856.03
2023-05-23T01:24:57.566Z,100865.63
2023-05-23T01:27:29.995Z,100859.41
2023-05-23T01:29:57.911Z,100868.47
2023-05-23T01:32:25.560Z,100854.41
2023-05-23T01:34:55.914Z,100866.69
2023-05-23T01:37:22.437Z,100813.38
2023-05-23T01:39:49.153Z,100811.22
2023-05-23T01:42:15.655Z,100880.81
2023-05-23T01:44:42.659Z,100841.97
2023-05-23T01:47:09.876Z,100875.50
2023-05-23T01:49:37.342Z,100881.25
2023-05-23T01:52:05.027Z,100883.53
2023-05-23T01:54:32.800Z,100851.16
2023-05-23T01:57:00.610Z,100867.94
2023-05-23T01:59:27.197Z,100847.81
2023-05-23T02:01:53.733Z,100876.00
2023-05-23T02:04:20.283Z,100860.25
2023-05-23T02:06:47.414Z,100853.22
2023-05-23T02:09:14.409Z,100883.44
2023-05-23T02:11:40.910Z,100890.63
2023-05-23T02:14:07.781Z,100849.53
2023-05-23T02:16:36.577Z,100897.16
2023-05-23T02:19:03.564Z,100888.81
2023-05-23T02:21:34.198Z,100880.41
2023-05-23T02:24:01.634Z,100887.69
2023-05-23T02:26:28.351Z,100888.72
2023-05-23T02:28:55.058Z,100836.44
2023-05-23T02:31:21.611Z,100858.28
2023-05-23T02:33:48.195Z,100892.38
2023-05-23T02:36:14.727Z,100895.47
2023-05-23T02:38:41.398Z,100850.47
2023-05-23T02:41:08.000Z,100846.88
2023-05-23T02:43:34.520Z,100890.03
2023-05-23T02:46:01.185Z,100856.97
2023-05-23T02:48:27.678Z,100894.91
2023-05-23T02:50:54.353Z,100887.13
2023-05-23T02:53:21.088Z,100893.28
2023-05-23T02:55:47.605Z,100902.19
2023-05-23T02:58:14.970Z,100889.94
2023-05-23T03:00:43.696Z,100851.88
2023-05-23T03:03:10.335Z,100891.50
2023-05-23T03:05:37.486Z,100826.53
2023-05-23T03:08:07.101Z,100812.69
2023-05-23T03:10:33.731Z,100896.50
2023-05-23T03:13:00.295Z,100864.84
2023-05-23T03:15:26.818Z,100873.28
2023-05-23T03:17:53.379Z,100878.34
2023-05-23T03:20:20.108Z,100895.88
2023-05-23T03:22:46.581Z,100887.41
2023-05-23T03:25:14.904Z,100897.84
2023-05-23T03:27:41.389Z,100893.47
2023-05-23T03:30:08.374Z,100892.44
2023-05-23T03:32:34.902Z,100889.03
2023-05-23T03:35:01.437Z,100894.31
2023-05-23T03:37:27.932Z,100878.84
2023-05-23T03:39:54.362Z,100908.19
2023-05-23T03:42:21.064Z,100896.72
2023-05-23T03:44:47.544Z,100861.84
2023-05-23T03:47:14.019Z,100873.88
2023-05-23T03:49:40.540Z,100902.06
2023-05-23T03:52:07.564Z,100879.28
2023-05-23T03:54:34.093Z,100860.03
2023-05-23T03:57:00.780Z,100860.41
2023-05-23T03:59:27.353Z,100914.78
2023-05-23T04:01:54.060Z,100875.84
2023-05-23T04:04:21.150Z,100887.66
2023-05-23T04:06:48.696Z,100912.31
2023-05-23T04:09:15.170Z,100932.34
2023-05-23T04:11:42.470Z,100928.56
2023-05-23T04:14:09.006Z,100912.00
2023-05-23T04:16:38.101Z,100938.09
2023-05-23T04:19:06.012Z,100932.19
2023-05-23T04:21:32.982Z,100891.75
2023-05-23T04:23:59.536Z,100945.94
2023-05-23T04:26:26.019Z,100943.50
2023-05-23T04:29:01.957Z,100923.47
2023-05-23T04:31:28.547Z,100940.72
2023-05-23T04:33:55.110Z,100940.72
2023-05-23T04:36:23.493Z,100881.00
2023-05-23T04:38:50.036Z,100947.94
2023-05-23T04:41:16.590Z,100955.28
2023-05-23T04:43:43.145Z,100949.56
2023-05-23T04:46:10.211Z,100943.72
2023-05-23T04:48:39.534Z,100951.22
2023-05-23T04:51:06.461Z,100961.25
2023-05-23T04:53:32.963Z,100928.91
2023-05-23T04:55:59.694Z,100967.91
2023-05-23T04:58:26.312Z,100972.81
2023-05-23T05:00:53.066Z,100970.22
2023-05-23T05:03:19.941Z,100930.97
2023-05-23T05:05:46.399Z,100968.84
2023-05-23T05:08:15.959Z,100948.44
2023-05-23T05:10:42.880Z,100966.34
2023-05-23T05:13:09.615Z,100936.78
2023-05-23T05:15:36.211Z,100932.78
2023-05-23T05:18:02.853Z,100974.06
2023-05-23T05:20:29.508Z,100973.69
2023-05-23T05:22:57.884Z,100976.53
2023-05-23T05:25:24.920Z,100980.66
2023-05-23T05:27:52.660Z,100989.38
2023-05-23T05:30:19.624Z,100986.66
2023-05-23T05:32:48.458Z,100999.56
2023-05-23T05:35:15.110Z,100919.28
2023-05-23T05:37:41.715Z,100991.53
2023-05-23T05:40:09.086Z,100956.53
2023-05-23T05:42:35.765Z,100992.63
2023-05-23T05:45:02.332Z,100965.34
2023-05-23T05:47:28.842Z,101010.28
2023-05-23T05:49:55.454Z,100994.72
2023-05-23T05:52:21.922Z,101010.13
2023-05-23T05:54:48.444Z,100967.53
2023-05-23T05:57:14.957Z,101011.38
2023-05-23T05:59:41.428Z,101016.78
2023-05-23T06:02:08.296Z,101018.72
2023-05-23T06:04:34.842Z,100977.97
2023-05-23T06:07:01.625Z,100982.81
2023-05-23T06:09:28.118Z,101017.50
2023-05-23T06:11:55.453Z,101012.63
2023-05-23T06:14:22.052Z,101034.03
2023-05-23T06:16:49.130Z,101024.22
2023-05-23T06:19:15.698Z,101042.41
2023-05-23T06:21:42.271Z,101020.16
2023-05-23T06:24:08.785Z,101028.09
2023-05-23T06:26:37.391Z,101014.78
2023-05-23T06:29:03.865Z,101034.94
2023-05-23T06:31:30.710Z,101037.56
2023-05-23T06:33:57.286Z,101024.47
2023-05-23T06:36:23.792Z,100997.25
2023-05-23T06:38:50.308Z,101039.13
2023-05-23T06:41:17.489Z,101035.06
2023-05-23T06:43:43.958Z,101041.28
2023-05-23T06:46:10.504Z,101011.44
2023-05-23T06:48:38.643Z,101049.28
2023-05-23T06:51:05.424Z,101049.22
2023-05-23T06:53:32.131Z,101056.28
2023-05-23T06:55:58.770Z,101060.25
2023-05-23T06:58:25.316Z,101053.16
2023-05-23T07:00:52.006Z,101065.47
2023-05-23T07:03:18.561Z,101052.06
2023-05-23T07:05:45.141Z,101068.53
2023-05-23T07:08:14.812Z,101051.97
2023-05-23T07:10:41.939Z,101045.06
2023-05-23T07:13:09.000Z,101026.78
2023-05-23T07:15:35.612Z,101079.25
2023-05-23T07:18:02.303Z,101096.63
2023-05-23T07:20:28.831Z,101059.09
2023-05-23T07:22:55.335Z,101089.13
2023-05-23T07:25:23.376Z,101101.94
2023-05-23T07:27:50.610Z,101081.09
2023-05-23T07:30:23.053Z,101102.34
2023-05-23T07:32:49.735Z,101092.22
2023-05-23T07:35:16.937Z,101058.91
2023-05-23T07:37:44.464Z,101124.78
2023-05-23T07:40:11.311Z,101130.94
2023-05-23T07:42:37.825Z,101128.00
2023-05-23T07:45:04.532Z,101085.75
2023-05-23T07:47:31.011Z,101105.41
2023-05-23T07:49:57.540Z,101094.53
2023-05-23T07:52:24.061Z,101146.28
2023-05-23T07:54:50.826Z,101121.47
2023-05-23T07:57:17.372Z,101144.84
2023-05-23T07:59:43.983Z,101138.28
2023-05-23T08:02:10.470Z,101151.00
2023-05-23T08:04:37.157Z,101155.59
2023-05-23T08:07:06.171Z,101151.94
2023-05-23T08:09:33.066Z,101150.09
2023-05-23T08:12:01.154Z,101152.88
2023-05-23T08:14:38.678Z,101129.75
2023-05-23T08:17:15.129Z,101026.06
2023-05-23T08:19:42.135Z,101154.59
2023-05-23T08:22:08.725Z,101164.41
2023-05-23T08:24:35.406Z,101170.00
2023-05-23T08:27:01.949Z,101143.44
2023-05-23T08:29:28.430Z,101173.72
2023-05-23T08:31:54.925Z,101173.13
2023-05-23T08:34:24.071Z,101158.25
2023-05-23T08:36:51.109Z,101169.81
2023-05-23T08:39:17.658Z,101177.00
2023-05-23T08:41:44.304Z,101156.63
2023-05-23T08:44:10.865Z,101182.13
2023-05-23T08:46:45.828Z,101184.47
2023-05-23T08:49:14.298Z,101189.75
2023-05-23T08:51:43.709Z,101186.41
2023-05-23T08:54:13.231Z,101185.47
2023-05-23T08:56:41.092Z,101198.97
2023-05-23T08:59:09.608Z,101171.19
2023-05-23T09:01:36.162Z,101195.34
2023-05-23T09:04:05.097Z,101207.19
2023-05-23T09:06:32.361Z,101171.63
2023-05-23T09:08:59.017Z,101193.81
2023-05-23T09:11:25.801Z,101193.16
2023-05-23T09:13:52.278Z,101222.38
2023-05-23T09:16:19.267Z,101218.72
2023-05-23T09:18:45.945Z,101160.81
2023-05-23T09:21:14.490Z,101228.34
2023-05-23T09:23:41.604Z,101229.63
2023-05-23T09:26:09.848Z,101210.72
2023-05-23T09:28:38.295Z,101235.69
2023-05-23T09:31:08.752Z,101198.97
2023-05-23T09:33:38.740Z,101244.84
2023-05-23T09:36:06.291Z,101250.25
2023-05-23T09:38:38.124Z,101247.44
2023-05-23T09:41:04.656Z,101221.50
2023-05-23T09:43:31.251Z,101239.81
2023-05-23T09:46:10.244Z,101245.53
2023-05-23T09:48:37.630Z,101242.78
2023-05-23T09:51:09.352Z,101258.88
2023-05-23T09:53:37.307Z,101241.94
2023-05-23T09:56:04.368Z,101237.94
2023-05-23T09:58:32.576Z,101261.47
2023-05-23T10:01:03.725Z,101223.22
2023-05-23T10:03:44.802Z,101211.53
2023-05-23T10:06:27.348Z,101216.09
2023-05-23T10:09:00.673Z,101272.13
2023-05-23T10:11:33.423Z,101265.00
2023-05-23T10:14:02.614Z,101221.25
2023-05-23T10:16:52.418Z,101240.25
2023-05-23T10:19:37.810Z,101278.22
2023-05-23T10:22:07.385Z,101283.53
2023-05-23T10:24:34.512Z,101290.44
2023-05-23T10:27:01.448Z,101271.69
2023-05-23T10:29:29.388Z,101291.72
2023-05-23T10:31:56.571Z,101293.94
2023-05-23T10:34:35.670Z,101294.72
2023-05-23T10:37:06.401Z,101295.56
2023-05-23T10:40:07.274Z,101294.47
2023-05-23T10:43:27.289Z,101292.13
2023-05-23T10:45:53.969Z,101294.16
2023-05-23T10:48:41.528Z,101298.09
2023-05-23T10:51:09.981Z,101310.88
2023-05-23T10:53:38.865Z,101271.41
2023-05-23T10:56:07.502Z,101315.38
2023-05-23T10:58:35.437Z,101311.53
2023-05-23T11:01:06.550Z,101318.19
2023-05-23T11:03:38.431Z,101316.78
2023-05-23T11:06:06.049Z,101299.38
2023-05-23T11:08:47.875Z,101289.72
2023-05-23T11:11:15.961Z,101273.16
2023-05-23T11:13:55.450Z,101310.00
2023-05-23T11:16:32.654Z,101315.59
2023-05-23T11:19:21.852Z,101306.31
2023-05-23T11:21:56.159Z,101315.63
2023-05-23T11:24:23.313Z,101314.00
2023-05-23T11:27:01.524Z,101303.72
2023-05-23T11:29:28.853Z,101282.13
2023-05-23T11:31:56.360Z,101313.44
2023-05-23T11:34:26.069Z,101306.88
2023-05-23T11:36:56.366Z,101302.44
2023-05-23T11:39:23.271Z,101297.47
2023-05-23T11:42:03.272Z,101297.72
2023-05-23T11:44:30.280Z,101328.03
2023-05-23T11:47:04.351Z,101329.78
2023-05-23T11:49:31.863Z,101337.63
2023-05-23T11:52:00.111Z,101335.13
2023-05-23T11:54:27.384Z,101297.06
2023-05-23T11:56:54.661Z,101342.97
2023-05-23T11:59:22.795Z,101341.03
2023-05-23T12:01:49.347Z,101337.41
2023-05-23T12:04:15.977Z,101319.00
2023-05-23T12:06:42.601Z,101306.38
2023-05-23T12:09:11.663Z,101328.53
2023-05-23T12:11:39.477Z,101364.28
2023-05-23T12:14:06.689Z,101358.63
2023-05-23T12:16:34.176Z,101373.03
2023-05-23T12:19:02.212Z,101363.81
2023-05-23T12:21:48.368Z,101361.41
2023-05-23T12:24:18.682Z,101364.66
2023-05-23T12:26:55.261Z,101358.56
2023-05-23T12:29:35.106Z,101365.69
2023-05-23T12:32:03.660Z,101369.91
2023-05-23T12:34:31.655Z,101356.69
2023-05-23T12:37:18.165Z,101360.25
2023-05-23T12:39:45.961Z,101362.13
2023-05-23T12:42:12.650Z,101324.13
2023-05-23T12:44:43.760Z,101336.16
2023-05-23T12:47:13.368Z,101332.50
2023-05-23T12:49:40.713Z,101356.53
2023-05-23T12:52:07.257Z,101348.81
2023-05-23T12:54:33.816Z,101310.31
2023-05-23T12:57:00.357Z,101342.16
2023-05-23T12:59:27.127Z,101346.38
2023-05-23T13:01:54.158Z,101352.91
2023-05-23T13:04:20.754Z,101331.16
2023-05-23T13:06:47.286Z,101342.03
2023-05-23T13:09:14.351Z,101346.38
2023-05-23T13:11:41.450Z,101341.94
2023-05-23T13:14:10.665Z,101347.44
2023-05-23T13:16:39.165Z,101346.06
2023-05-23T13:19:05.750Z,101348.28
2023-05-23T13:21:35.818Z,101340.38
2023-05-23T13:24:02.322Z,101335.59
2023-05-23T13:26:28.942Z,101339.75
2023-05-23T13:28:55.625Z,101331.41
2023-05-23T13:31:22.450Z,101327.94
2023-05-23T13:33:48.987Z,101287.84
2023-05-23T13:36:15.591Z,101300.81
2023-05-23T13:38:42.063Z,101300.44
2023-05-23T13:41:08.924Z,101324.81
2023-05-23T13:43:36.424Z,101342.22
2023-05-23T13:46:03.244Z,101337.66
2023-05-23T13:48:29.803Z,101336.00
2023-05-23T13:50:56.580Z,101290.88
2023-05-23T13:53:23.204Z,101342.09
2023-05-23T13:55:49.890Z,101332.44
2023-05-23T13:58:16.436Z,101341.69
2023-05-23T14:00:43.405Z,101337.63
2023-05-23T14:03:10.402Z,101321.34
2023-05-23T14:05:37.376Z,101337.22
2023-05-23T14:08:04.598Z,101304.22
2023-05-23T14:10:33.258Z,101321.84
2023-05-23T14:12:59.779Z,101296.47
2023-05-23T14:15:26.927Z,101306.16
2023-05-23T14:17:55.474Z,101300.38
2023-05-23T14:20:22.685Z,101293.53
2023-05-23T14:22:49.986Z,101330.94
2023-05-23T14:25:17.212Z,101302.09
2023-05-23T14:27:44.159Z,101318.38
2023-05-23T14:30:13.667Z,101342.13
2023-05-23T14:32:40.415Z,101301.88
2023-05-23T14:35:09.737Z,101325.41
2023-05-23T14:37:36.633Z,101293.75
2023-05-23T14:40:05.361Z,101340.88
2023-05-23T14:42:34.897Z,101343.81
2023-05-23T14:45:01.509Z,101336.13
2023-05-23T14:47:28.089Z,101333.78
2023-05-23T14:49:54.684Z,101334.75
2023-05-23T14:52:21.448Z,101324.91
2023-05-23T14:54:49.195Z,101331.88
2023-05-23T14:57:16.745Z,101338.84
2023-05-23T14:59:43.266Z,101298.25
2023-05-23T15:02:10.012Z,101345.63
2023-05-23T15:04:37.312Z,101349.56
2023-05-23T15:07:04.143Z,101351.94
2023-05-23T15:09:30.872Z,101334.00
2023-05-23T15:11:57.623Z,101349.00
2023-05-23T15:14:29.169Z,101344.38
2023-05-23T15:16:56.425Z,101234.38
2023-05-23T15:19:22.980Z,101339.03
2023-05-23T15:21:52.126Z,101335.19
2023-05-23T15:24:18.961Z,101343.53
2023-05-23T15:26:45.529Z,101306.81
2023-05-23T15:29:13.207Z,101342.56
2023-05-23T15:31:39.727Z,101347.16
2023-05-23T15:34:06.271Z,101348.03
2023-05-23T15:36:32.815Z,101313.19
2023-05-23T15:39:00.561Z,101337.72
2023-05-23T15:41:27.907Z,101336.53
2023-05-23T15:43:54.402Z,101294.28
2023-05-23T15:46:20.936Z,101328.41
2023-05-23T15:48:47.410Z,101322.81
2023-05-23T15:51:13.913Z,101349.75
2023-05-23T15:53:58.947Z,101343.44
2023-05-23T15:56:26.220Z,101352.91
2023-05-23T15:58:52.785Z,101353.06
2023-05-23T16:01:19.420Z,101345.41
2023-05-23T16:03:46.639Z,101356.97
2023-05-23T16:06:13.710Z,101341.75
2023-05-23T16:08:40.280Z,101351.72
2023-05-23T16:11:06.773Z,101320.34
2023-05-23T16:13:33.297Z,101352.91
2023-05-23T16:15:59.956Z,101327.91
2023-05-23T16:18:26.618Z,101361.50
2023-05-23T16:20:53.249Z,101351.22
2023-05-23T16:23:19.737Z,101361.16
2023-05-23T16:25:46.232Z,101354.69
2023-05-23T16:28:12.682Z,101337.22
2023-05-23T16:30:39.271Z,101342.38
2023-05-23T16:33:05.935Z,101337.97
2023-05-23T16:35:32.587Z,101346.31
2023-05-23T16:37:59.122Z,101336.75
2023-05-23T16:40:25.612Z,101352.69
2023-05-23T16:42:52.155Z,101349.06
2023-05-23T16:45:18.775Z,101346.38
2023-05-23T16:47:45.398Z,101346.25
2023-05-23T16:50:12.167Z,101342.72
2023-05-23T16:52:40.084Z,101236.91
2023-05-23T16:55:07.045Z,101344.22
2023-05-23T16:57:33.592Z,101317.19
2023-05-23T17:00:00.125Z,101349.38
2023-05-23T17:02:29.588Z,101358.16
2023-05-23T17:05:00.038Z,101328.91
2023-05-23T17:07:26.615Z,101361.06
2023-05-23T17:09:53.364Z,101357.72
2023-05-23T17:12:20.186Z,101366.41
2023-05-23T17:14:48.892Z,101361.22
2023-05-23T17:17:18.288Z,101375.75
2023-05-23T17:19:44.962Z,101368.88
2023-05-23T17:22:11.640Z,101334.16
2023-05-23T17:24:38.153Z,101377.84
2023-05-23T17:27:05.251Z,101329.13
2023-05-23T17:29:31.873Z,101363.09
2023-05-23T17:31:58.501Z,101368.50
2023-05-23T17:34:25.536Z,101354.34
2023-05-23T17:36:53.166Z,101332.38
2023-05-23T17:39:21.562Z,101369.25
2023-05-23T17:41:51.867Z,101368.88
2023-05-23T17:44:18.406Z,101356.91
2023-05-23T17:46:45.160Z,101335.75
2023-05-23T17:49:11.798Z,101379.28
2023-05-23T17:51:38.401Z,101354.94
2023-05-23T17:54:04.978Z,101372.44
2023-05-23T17:56:32.000Z,101371.69
2023-05-23T17:58:58.596Z,101382.09
2023-05-23T18:01:26.231Z,101378.06
2023-05-23T18:03:54.476Z,101348.59
2023-05-23T18:06:21.219Z,101373.88
2023-05-23T18:08:47.973Z,101322.97
2023-05-23T18:11:14.516Z,101389.44
2023-05-23T18:13:42.501Z,101345.84
2023-05-23T18:16:09.386Z,101313.25
2023-05-23T18:18:35.970Z,101385.75
2023-05-23T18:21:02.689Z,101372.72
2023-05-23T18:23:29.264Z,101386.06
2023-05-23T18:25:55.782Z,101382.50
2023-05-23T18:28:22.252Z,101352.88
2023-05-23T18:30:58.741Z,101390.19
2023-05-23T18:33:25.499Z,101383.16
2023-05-23T18:36:07.103Z,101385.63
2023-05-23T18:38:34.125Z,101371.69
2023-05-23T18:41:00.798Z,101388.22
2023-05-23T18:43:27.378Z,101342.63
2023-05-23T18:45:53.890Z,101356.25
2023-05-23T18:48:20.689Z,101371.38
2023-05-23T18:50:47.231Z,101401.81
2023-05-23T18:53:14.033Z,101367.28
2023-05-23T18:55:40.546Z,101405.59
2023-05-23T18:58:07.217Z,101418.22
2023-05-23T19:00:36.541Z,101403.13
2023-05-23T19:03:03.333Z,101374.53
2023-05-23T19:05:30.122Z,101430.34
2023-05-23T19:07:56.624Z,101432.41
2023-05-23T19:10:23.135Z,101438.22
2023-05-23T19:12:49.663Z,101446.53
2023-05-23T19:15:19.350Z,101407.72
2023-05-23T19:17:46.640Z,101450.00
2023-05-23T19:20:14.571Z,101440.91
2023-05-23T19:22:50.867Z,101431.31
2023-05-23T19:25:20.046Z,101461.78
2023-05-23T19:27:46.941Z,101270.03
2023-05-23T19:30:13.603Z,101466.47
2023-05-23T19:32:44.680Z,101464.59
2023-05-23T19:35:11.617Z,101461.47
2023-05-23T19:37:39.481Z,101467.03
2023-05-23T19:40:07.119Z,101443.53
2023-05-23T19:42:34.102Z,101424.44
2023-05-23T19:45:04.033Z,101457.78
2023-05-23T19:47:32.389Z,101449.22
2023-05-23T19:49:58.894Z,101473.91
2023-05-23T19:52:25.393Z,101477.88
2023-05-23T19:54:52.148Z,101483.59
2023-05-23T19:57:18.703Z,101492.34
2023-05-23T19:59:48.084Z,101442.13
2023-05-23T20:02:14.589Z,101490.69
2023-05-23T20:04:41.619Z,101488.25
2023-05-23T20:07:08.116Z,101494.78
2023-05-23T20:09:34.928Z,101500.91
2023-05-23T20:12:01.466Z,101440.00
2023-05-23T20:14:31.290Z,101507.47
2023-05-23T20:16:57.926Z,101517.56
2023-05-23T20:19:24.557Z,101481.97
2023-05-23T20:21:51.118Z,101483.19
2023-05-23T20:24:17.856Z,101476.31
2023-05-23T20:26:44.468Z,101497.00
2023-05-23T20:29:11.004Z,101532.16
2023-05-23T20:31:38.496Z,101518.22
2023-05-23T20:34:05.088Z,101528.13
2023-05-23T20:36:31.550Z,101535.28
2023-05-23T20:38:58.170Z,101535.25
2023-05-23T20:41:24.848Z,101491.53
2023-05-23T20:43:51.360Z,101502.56
2023-05-23T20:46:21.289Z,101513.41
2023-05-23T20:48:49.596Z,101497.25
2023-05-23T20:51:16.273Z,101545.09
2023-05-23T20:53:42.776Z,101514.59
2023-05-23T20:56:12.213Z,101557.53
2023-05-23T20:58:38.753Z,101561.72
2023-05-23T21:01:05.284Z,101564.16
2023-05-23T21:03:31.977Z,101565.09
2023-05-23T21:05:58.472Z,101514.88
2023-05-23T21:08:24.965Z,101555.22
2023-05-23T21:10:54.405Z,101546.41
2023-05-23T21:13:21.444Z,101574.09
2023-05-23T21:15:48.056Z,101572.97
2023-05-23T21:18:14.771Z,101545.78
2023-05-23T21:20:41.595Z,101556.47
2023-05-23T21:23:08.292Z,101575.63
2023-05-23T21:25:34.851Z,101565.91
2023-05-23T21:28:01.346Z,101570.19
2023-05-23T21:30:27.847Z,101543.28
2023-05-23T21:32:54.455Z,101575.88
2023-05-23T21:35:21.252Z,101577.34
2023-05-23T21:37:47.734Z,101527.97
2023-05-23T21:40:14.291Z,101508.81
2023-05-23T21:42:47.807Z,101564.22
2023-05-23T21:45:14.299Z,101537.16
2023-05-23T21:47:40.991Z,101571.75
2023-05-23T21:50:08.420Z,101567.16
2023-05-23T21:52:34.996Z,101555.16
2023-05-23T21:55:01.510Z,101571.88
2023-05-23T21:57:27.970Z,101499.91
2023-05-23T21:59:54.454Z,101561.81
2023-05-23T22:02:21.155Z,101500.66
2023-05-23T22:04:47.719Z,101515.97
2023-05-23T22:07:14.165Z,101560.13
2023-05-23T22:09:41.754Z,101516.59
2023-05-23T22:12:08.469Z,101509.19
2023-05-23T22:14:34.999Z,101556.94
2023-05-23T22:17:02.269Z,101504.44
2023-05-23T22:19:29.958Z,101541.66
2023-05-23T22:21:56.974Z,101568.47
2023-05-23T22:24:23.951Z,101568.94
2023-05-23T22:26:50.745Z,101537.31
2023-05-23T22:29:18.255Z,101504.78
2023-05-23T22:31:44.882Z,101541.16
2023-05-23T22:34:11.502Z,101528.09
2023-05-23T22:36:38.971Z,101539.00
2023-05-23T22:39:06.059Z,101528.81
2023-05-23T22:41:32.669Z,101564.47
2023-05-23T22:43:59.122Z,101535.47
2023-05-23T22:46:25.716Z,101539.38
2023-05-23T22:48:52.583Z,101565.09
2023-05-23T22:51:19.783Z,101521.84
2023-05-23T22:53:46.281Z,101520.00
2023-05-23T22:56:12.764Z,101548.41
2023-05-23T22:58:39.297Z,101572.22
2023-05-23T23:01:06.001Z,101575.16
2023-05-23T23:03:32.882Z,101575.25
2023-05-23T23:05:59.672Z,101565.69
2023-05-23T23:08:26.836Z,101578.00
2023-05-23T23:10:53.290Z,101536.63
2023-05-23T23:13:19.885Z,101579.97
2023-05-23T23:15:49.649Z,101544.75
2023-05-23T23:18:16.664Z,101570.22
2023-05-23T23:20:43.537Z,101584.19
2023-05-23T23:23:10.419Z,101548.69
2023-05-23T23:25:36.977Z,101586.88
2023-05-23T23:28:03.587Z,101567.19
2023-05-23T23:30:30.141Z,101557.25
2023-05-23T23:32:56.657Z,101529.13
2023-05-23T23:35:23.285Z,101592.41
2023-05-23T23:37:50.073Z,101562.66
2023-05-23T23:40:16.781Z,101586.31
2023-05-23T23:42:43.242Z,101543.59
2023-05-23T23:45:10.452Z,101587.53
2023-05-23T23:47:38.841Z,101593.63
2023-05-23T23:50:06.659Z,101566.97
2023-05-23T23:52:33.642Z,101597.00
2023-05-23T23:55:00.194Z,101582.00
2023-05-23T23:57:26.661Z,101583.22
2023-05-23T23:59:53.126Z,101561.50
